Time;durP1;ratioP1;P1;durP2;ratioP2;P2;SDS_P1;SDS_P2;PMS_P1;PMS_P2;Temp;Humidity;BMP_temperature;BMP_pressure;BME280_temperature;BME280_humidity;BME280_pressure;Samples;Min_cycle;Max_cycle;Signal;HPM_P1;HPM_P2
2024/01/14 00:00:15;;;;;;;10.82;8.23;;;;;;;;;;2093016;28;20040;-86
2024/01/14 00:01:37;;;;;;;14.00;9.40;;;;;;;;;;2090781;28;20033;-86
2024/01/14 00:02:56;;;;;;;11.05;7.50;;;;;;;;;;2093044;28;20100;-86
2024/01/14 00:04:21;;;;;;;11.95;8.68;;;;;;;;;;2094253;28;20032;-85
2024/01/14 00:05:46;;;;;;;13.57;8.93;;;;;;;;;;2088720;28;20025;-85
2024/01/14 00:07:07;;;;;;;13.70;8.63;;;;;;;;;;2094364;28;20040;-86
2024/01/14 00:08:30;;;;;;;11.25;8.00;;;;;;;;;;2092561;28;20152;-87
2024/01/14 00:09:49;;;;;;;14.38;8.75;;;;;;;;;;2092333;28;20067;-86
2024/01/14 00:11:11;;;;;;;10.77;8.20;;;;;;;;;;2092333;28;20036;-86
2024/01/14 00:12:33;;;;;;;11.73;7.95;;;;;;;;;;2101832;28;20024;-85
2024/01/14 00:14:03;;;;;;;10.63;8.55;;;;;;;;;;2094372;28;20037;-85
2024/01/14 00:15:28;;;;;;;14.27;8.18;;;;;;;;;;2092324;28;20033;-86
2024/01/14 00:16:47;;;;;;;14.38;8.80;;;;;;;;;;2093641;28;20024;-86
2024/01/14 00:18:06;;;;;;;10.45;8.05;;;;;;;;;;2094294;28;20024;-86
2024/01/14 00:19:31;;;;;;;10.77;8.18;;;;;;;;;;2093887;28;20412;-86
2024/01/14 00:20:53;;;;;;;11.07;7.88;;;;;;;;;;2094944;28;20444;-85
2024/01/14 00:22:37;;;;;;;9.40;7.53;;;;;;;;;;2093551;28;20092;-86
2024/01/14 00:23:58;;;;;;;10.38;7.35;;;;;;;;;;2093039;28;20033;-85
2024/01/14 00:25:25;;;;;;;14.05;8.23;;;;;;;;;;2098135;28;20496;-86
2024/01/14 00:26:53;;;;;;;10.40;7.07;;;;;;;;;;2094247;28;20048;-85
2024/01/14 00:28:15;;;;;;;10.43;7.88;;;;;;;;;;2094594;28;20028;-85
2024/01/14 00:29:44;;;;;;;10.98;8.07;;;;;;;;;;2092673;28;20040;-86
2024/01/14 00:31:04;;;;;;;10.20;7.55;;;;;;;;;;2094277;28;20036;-86
2024/01/14 00:32:31;;;;;;;12.00;7.68;;;;;;;;;;2093613;28;20029;-86
2024/01/14 00:34:04;;;;;;;;;;;;;;;;;;;;;
2024/01/14 00:35:24;;;;;;;9.80;7.50;;;;;;;;;;2101895;28;20490;-86
2024/01/14 00:36:48;;;;;;;8.73;6.57;;;;;;;;;;2095781;28;20025;-85
2024/01/14 00:38:13;;;;;;;8.68;6.85;;;;;;;;;;2095318;28;20047;-86
2024/01/14 00:39:43;;;;;;;9.65;6.63;;;;;;;;;;2092686;28;20044;-86
2024/01/14 00:41:07;;;;;;;10.25;7.07;;;;;;;;;;2093339;28;22176;-85
2024/01/14 00:42:27;;;;;;;8.18;6.72;;;;;;;;;;2091775;28;20032;-86
2024/01/14 00:43:47;;;;;;;7.68;6.57;;;;;;;;;;2092038;28;20037;-85
2024/01/14 00:45:08;;;;;;;8.40;7.07;;;;;;;;;;2093537;28;20025;-86
2024/01/14 00:46:37;;;;;;;11.43;7.13;;;;;;;;;;2094479;28;20099;-86
2024/01/14 00:48:05;;;;;;;8.18;6.82;;;;;;;;;;2093787;28;20111;-85
2024/01/14 00:49:30;;;;;;;8.73;6.90;;;;;;;;;;2093798;28;20045;-86
2024/01/14 00:50:49;;;;;;;8.93;6.50;;;;;;;;;;2092646;28;20024;-85
2024/01/14 00:52:09;;;;;;;7.95;6.63;;;;;;;;;;2092502;28;20645;-86
2024/01/14 00:53:28;;;;;;;8.30;6.93;;;;;;;;;;2090916;28;20033;-86
2024/01/14 00:54:53;;;;;;;9.70;6.72;;;;;;;;;;2091689;28;20025;-86
2024/01/14 00:56:15;;;;;;;12.65;7.40;;;;;;;;;;2095335;28;20017;-86
2024/01/14 00:57:37;;;;;;;9.13;7.43;;;;;;;;;;2101068;28;20036;-86
2024/01/14 00:59:04;;;;;;;10.60;6.68;;;;;;;;;;2094387;28;20028;-86
2024/01/14 01:00:26;;;;;;;9.13;7.00;;;;;;;;;;2093186;28;20116;-86
2024/01/14 01:01:55;;;;;;;12.30;7.60;;;;;;;;;;2092393;28;20064;-86
2024/01/14 01:03:19;;;;;;;10.77;7.22;;;;;;;;;;2094078;28;20786;-87
2024/01/14 01:04:50;;;;;;;9.85;7.57;;;;;;;;;;2094049;28;20036;-87
2024/01/14 01:06:12;;;;;;;9.77;7.35;;;;;;;;;;2097402;28;20506;-86
2024/01/14 01:07:52;;;;;;;10.10;7.63;;;;;;;;;;2093810;28;20729;-87
2024/01/14 01:09:12;;;;;;;8.73;7.10;;;;;;;;;;2095983;28;20111;-88
2024/01/14 01:10:40;;;;;;;11.48;7.43;;;;;;;;;;2095483;28;20401;-84
2024/01/14 01:12:02;;;;;;;10.32;7.50;;;;;;;;;;2091746;28;20024;-84
2024/01/14 01:13:27;;;;;;;6.43;5.25;;;;;;;;;;2092902;28;20092;-84
2024/01/14 01:14:47;;;;;;;8.43;7.05;;;;;;;;;;2095541;28;20115;-85
2024/01/14 01:16:06;;;;;;;8.60;7.18;;;;;;;;;;2091853;28;20078;-85
2024/01/14 01:17:25;;;;;;;9.80;7.40;;;;;;;;;;2091066;28;20036;-85
2024/01/14 01:18:45;;;;;;;9.15;7.82;;;;;;;;;;2092162;28;20044;-85
2024/01/14 01:20:10;;;;;;;9.80;7.88;;;;;;;;;;2090475;28;20029;-86
2024/01/14 01:21:33;;;;;;;9.90;7.30;;;;;;;;;;2093959;28;20028;-85
2024/01/14 01:22:52;;;;;;;14.90;8.05;;;;;;;;;;2091825;28;20033;-85
2024/01/14 01:24:14;;;;;;;11.35;7.38;;;;;;;;;;2092799;28;20092;-84
2024/01/14 01:25:34;;;;;;;13.55;8.25;;;;;;;;;;2090501;28;20028;-85
2024/01/14 01:26:53;;;;;;;10.52;7.65;;;;;;;;;;2084652;28;20041;-85
2024/01/14 01:28:33;;;;;;;13.50;8.20;;;;;;;;;;2092327;28;20556;-85
2024/01/14 01:29:58;;;;;;;11.52;8.32;;;;;;;;;;2079193;28;20037;-85
2024/01/14 01:31:18;;;;;;;12.05;7.95;;;;;;;;;;2085613;28;20038;-85
2024/01/14 01:32:37;;;;;;;11.68;7.75;;;;;;;;;;2092580;28;20040;-86
2024/01/14 01:33:56;;;;;;;11.57;7.80;;;;;;;;;;2087713;28;20033;-86
2024/01/14 01:35:16;;;;;;;10.65;7.72;;;;;;;;;;2091054;28;20044;-86
2024/01/14 01:36:42;;;;;;;10.43;7.63;;;;;;;;;;2090254;28;20029;-86
2024/01/14 01:38:05;;;;;;;9.85;8.02;;;;;;;;;;2085076;28;20979;-87
2024/01/14 01:39:23;;;;;;;12.13;8.30;;;;;;;;;;2094501;28;20028;-85
2024/01/14 01:40:44;;;;;;;9.73;8.30;;;;;;;;;;2087456;28;20061;-86
2024/01/14 01:42:04;;;;;;;14.48;8.55;;;;;;;;;;2083969;28;20029;-86
2024/01/14 01:43:23;;;;;;;11.25;7.95;;;;;;;;;;2091329;28;20021;-85
2024/01/14 01:44:42;;;;;;;12.48;8.35;;;;;;;;;;2087643;28;20037;-85
2024/01/14 01:46:02;;;;;;;11.88;8.50;;;;;;;;;;2091732;28;20108;-85
2024/01/14 01:47:22;;;;;;;9.68;7.35;;;;;;;;;;2088070;28;20037;-86
2024/01/14 01:48:41;;;;;;;14.18;8.05;;;;;;;;;;2089743;28;20449;-86
2024/01/14 01:50:04;;;;;;;12.70;8.00;;;;;;;;;;2094310;28;20025;-86
2024/01/14 01:51:23;;;;;;;11.90;8.68;;;;;;;;;;2087743;28;20029;-85
2024/01/14 01:52:43;;;;;;;10.27;7.93;;;;;;;;;;2093836;28;20025;-86
2024/01/14 01:54:02;;;;;;;12.18;7.93;;;;;;;;;;2090640;28;20151;-86
2024/01/14 01:55:24;;;;;;;10.10;7.55;;;;;;;;;;2085927;28;20029;-86
2024/01/14 01:56:53;;;;;;;7.72;6.15;;;;;;;;;;2091192;28;20029;-85
2024/01/14 01:58:16;;;;;;;12.18;7.10;;;;;;;;;;2086946;28;20037;-86
2024/01/14 01:59:37;;;;;;;8.68;7.45;;;;;;;;;;2092347;28;20463;-85
2024/01/14 02:00:56;;;;;;;10.02;7.40;;;;;;;;;;2087118;28;20495;-86
2024/01/14 02:02:23;;;;;;;11.50;7.53;;;;;;;;;;2093581;28;20036;-85
2024/01/14 02:03:46;;;;;;;9.65;7.13;;;;;;;;;;2085872;28;20029;-85
2024/01/14 02:05:06;;;;;;;9.32;6.78;;;;;;;;;;2092304;28;20547;-85
2024/01/14 02:06:25;;;;;;;13.55;7.10;;;;;;;;;;2085773;28;20049;-86
2024/01/14 02:07:48;;;;;;;9.95;7.07;;;;;;;;;;2093266;28;20029;-85
2024/01/14 02:09:08;;;;;;;8.10;6.45;;;;;;;;;;2087074;28;20041;-85
2024/01/14 02:10:29;;;;;;;9.02;6.85;;;;;;;;;;2092734;28;20021;-85
2024/01/14 02:11:49;;;;;;;9.13;6.78;;;;;;;;;;2086191;28;20029;-85
2024/01/14 02:13:08;;;;;;;9.48;6.97;;;;;;;;;;2092470;28;20041;-85
2024/01/14 02:14:35;;;;;;;9.32;6.55;;;;;;;;;;2085022;28;20033;-86
2024/01/14 02:16:04;;;;;;;9.98;7.00;;;;;;;;;;2091541;28;20033;-86
2024/01/14 02:17:23;;;;;;;8.73;6.40;;;;;;;;;;2085240;28;20021;-85
2024/01/14 02:18:52;;;;;;;7.18;5.90;;;;;;;;;;2081251;28;20108;-84
2024/01/14 02:20:15;;;;;;;10.77;7.30;;;;;;;;;;2089268;28;20029;-85
2024/01/14 02:21:42;;;;;;;7.82;6.35;;;;;;;;;;2083371;28;20049;-86
2024/01/14 02:23:06;;;;;;;6.97;6.28;;;;;;;;;;2086973;28;20024;-85
2024/01/14 02:24:38;;;;;;;7.80;6.45;;;;;;;;;;2086812;28;20085;-85
2024/01/14 02:26:00;;;;;;;9.20;6.38;;;;;;;;;;2089349;28;20032;-85
2024/01/14 02:27:26;;;;;;;7.78;6.65;;;;;;;;;;2092901;28;20409;-86
2024/01/14 02:28:45;;;;;;;7.28;5.88;;;;;;;;;;2094357;28;20120;-86
2024/01/14 02:30:09;;;;;;;8.27;6.18;;;;;;;;;;2094335;28;20060;-85
2024/01/14 02:31:29;;;;;;;6.72;5.97;;;;;;;;;;2095843;28;20029;-85
2024/01/14 02:32:54;;;;;;;8.43;6.00;;;;;;;;;;2089993;28;20074;-85
2024/01/14 02:34:14;;;;;;;8.30;6.53;;;;;;;;;;2090963;28;20104;-85
2024/01/14 02:35:39;;;;;;;7.75;5.72;;;;;;;;;;2089682;28;20052;-85
2024/01/14 02:37:00;;;;;;;8.35;6.43;;;;;;;;;;2092333;28;20060;-85
2024/01/14 02:38:19;;;;;;;7.68;5.47;;;;;;;;;;2092515;28;20032;-85
2024/01/14 02:39:59;;;;;;;8.43;6.00;;;;;;;;;;2084619;28;20565;-85
2024/01/14 02:41:18;;;;;;;8.63;5.72;;;;;;;;;;2093601;28;20028;-85
2024/01/14 02:42:40;;;;;;;8.45;5.85;;;;;;;;;;2091005;28;20036;-86
2024/01/14 02:44:08;;;;;;;7.35;5.60;;;;;;;;;;2089841;28;20040;-85
2024/01/14 02:45:38;;;;;;;6.78;5.72;;;;;;;;;;2093340;28;20036;-86
2024/01/14 02:46:58;;;;;;;8.48;6.00;;;;;;;;;;2094649;28;20044;-85
2024/01/14 02:48:21;;;;;;;9.50;6.00;;;;;;;;;;2091715;28;20755;-86
2024/01/14 02:49:43;;;;;;;7.72;6.15;;;;;;;;;;2093137;28;20045;-85
2024/01/14 02:51:06;;;;;;;8.13;6.18;;;;;;;;;;2094077;28;20028;-85
2024/01/14 02:52:25;;;;;;;7.45;6.00;;;;;;;;;;2093335;28;20040;-86
2024/01/14 02:53:45;;;;;;;6.38;5.72;;;;;;;;;;2092425;28;20498;-85
2024/01/14 02:55:09;;;;;;;7.60;5.90;;;;;;;;;;2097388;28;20115;-86
2024/01/14 02:56:38;;;;;;;6.10;5.50;;;;;;;;;;2094841;28;20025;-85
2024/01/14 02:57:57;;;;;;;8.13;6.32;;;;;;;;;;2092446;28;20028;-86
2024/01/14 02:59:16;;;;;;;9.43;5.82;;;;;;;;;;2092532;28;20445;-86
2024/01/14 03:00:38;;;;;;;8.30;6.03;;;;;;;;;;2092692;28;20051;-86
2024/01/14 03:01:57;;;;;;;9.68;6.13;;;;;;;;;;2092946;28;20028;-86
2024/01/14 03:03:16;;;;;;;7.10;6.07;;;;;;;;;;2097216;28;20505;-85
2024/01/14 03:04:36;;;;;;;8.75;6.50;;;;;;;;;;2092715;28;20036;-85
2024/01/14 03:06:03;;;;;;;9.45;6.07;;;;;;;;;;2091394;28;20036;-85
2024/01/14 03:07:26;;;;;;;9.38;5.85;;;;;;;;;;2093969;28;20037;-85
2024/01/14 03:08:51;;;;;;;6.25;5.65;;;;;;;;;;2093457;28;20032;-85
2024/01/14 03:10:13;;;;;;;8.23;5.85;;;;;;;;;;2095499;28;20032;-86
2024/01/14 03:11:36;;;;;;;7.97;6.13;;;;;;;;;;2093156;28;20068;-86
2024/01/14 03:12:55;;;;;;;;;;;;;;;;;;2093788;28;20029;-86
2024/01/14 03:14:14;;;;;;;5.75;5.25;;;;;;;;;;2093239;28;19908;-87
2024/01/14 03:15:41;;;;;;;6.13;5.40;;;;;;;;;;2097727;28;20888;-86
2024/01/14 03:18:59;;;;;;;8.57;6.28;;;;;;;;;;2096284;28;20040;-85
2024/01/14 03:20:25;;;;;;;7.30;6.25;;;;;;;;;;2095821;28;20037;-86
2024/01/14 03:21:45;;;;;;;8.80;6.32;;;;;;;;;;2094737;28;20028;-86
2024/01/14 03:23:12;;;;;;;7.40;5.55;;;;;;;;;;2092409;28;20032;-87
2024/01/14 03:24:46;;;;;;;7.40;5.10;;;;;;;;;;2094781;28;20049;-85
2024/01/14 03:26:20;;;;;;;8.88;6.10;;;;;;;;;;2099445;28;20048;-85
2024/01/14 03:27:44;;;;;;;10.10;5.95;;;;;;;;;;2097897;28;20082;-85
2024/01/14 03:29:14;;;;;;;7.95;5.07;;;;;;;;;;2094985;28;20037;-86
2024/01/14 03:30:39;;;;;;;7.97;5.78;;;;;;;;;;2094599;28;20032;-86
2024/01/14 03:32:19;;;;;;;6.05;5.47;;;;;;;;;;2093947;28;20039;-85
2024/01/14 03:33:38;;;;;;;6.53;5.45;;;;;;;;;;2093496;28;20045;-86
2024/01/14 03:35:17;;;;;;;7.88;5.68;;;;;;;;;;2093264;28;20024;-85
2024/01/14 03:36:40;;;;;;;7.88;5.93;;;;;;;;;;2095116;28;20061;-86
2024/01/14 03:38:02;;;;;;;6.97;5.20;;;;;;;;;;2090014;28;20022;-86
2024/01/14 03:39:26;;;;;;;7.03;5.70;;;;;;;;;;2089893;28;20025;-86
2024/01/14 03:40:54;;;;;;;6.18;5.43;;;;;;;;;;2094544;28;20115;-85
2024/01/14 03:42:25;;;;;;;6.95;5.47;;;;;;;;;;2092096;28;20044;-86
2024/01/14 03:43:47;;;;;;;7.75;5.60;;;;;;;;;;2096852;28;20640;-86
2024/01/14 03:45:06;;;;;;;9.25;5.18;;;;;;;;;;2093123;28;20028;-86
2024/01/14 03:46:26;;;;;;;8.00;5.68;;;;;;;;;;2095399;28;20494;-86
2024/01/14 03:47:53;;;;;;;6.13;5.55;;;;;;;;;;2096097;28;20033;-85
2024/01/14 03:49:18;;;;;;;6.28;5.45;;;;;;;;;;2094554;28;20033;-86
2024/01/14 03:50:43;;;;;;;6.15;5.53;;;;;;;;;;2090555;28;20374;-85
2024/01/14 03:52:03;;;;;;;6.05;5.45;;;;;;;;;;2092708;28;20932;-86
2024/01/14 03:53:25;;;;;;;7.00;5.78;;;;;;;;;;2090408;28;20032;-85
2024/01/14 03:54:50;;;;;;;7.25;5.45;;;;;;;;;;2092879;28;20025;-86
2024/01/14 03:56:20;;;;;;;6.15;5.20;;;;;;;;;;2094197;28;20099;-85
2024/01/14 03:57:39;;;;;;;7.13;5.30;;;;;;;;;;2094198;28;20891;-85
2024/01/14 03:58:58;;;;;;;7.45;5.50;;;;;;;;;;2092171;28;20107;-86
2024/01/14 04:00:23;;;;;;;9.70;5.85;;;;;;;;;;2091817;28;20330;-86
2024/01/14 04:01:43;;;;;;;8.27;5.28;;;;;;;;;;2096492;28;20033;-87
2024/01/14 04:03:02;;;;;;;6.53;5.28;;;;;;;;;;2093113;28;20444;-86
2024/01/14 04:04:24;;;;;;;7.88;4.85;;;;;;;;;;2093689;28;20037;-85
2024/01/14 04:05:44;;;;;;;8.10;5.30;;;;;;;;;;2092457;28;20476;-86
2024/01/14 04:07:08;;;;;;;6.00;5.03;;;;;;;;;;2093706;28;20072;-85
2024/01/14 04:08:31;;;;;;;5.28;4.72;;;;;;;;;;2095385;28;20040;-85
2024/01/14 04:09:50;;;;;;;5.97;5.07;;;;;;;;;;2094507;28;20032;-86
2024/01/14 04:11:15;;;;;;;6.50;5.20;;;;;;;;;;2092776;28;20033;-85
2024/01/14 04:12:42;;;;;;;5.82;5.22;;;;;;;;;;2092593;28;20029;-86
2024/01/14 04:14:01;;;;;;;8.52;5.35;;;;;;;;;;2093398;28;20016;-86
2024/01/14 04:15:25;;;;;;;7.15;4.60;;;;;;;;;;2091615;28;20103;-85
2024/01/14 04:16:44;;;;;;;6.82;5.15;;;;;;;;;;2094422;28;20498;-86
2024/01/14 04:18:06;;;;;;;8.60;5.28;;;;;;;;;;2090955;28;20029;-85
2024/01/14 04:19:36;;;;;;;6.47;4.90;;;;;;;;;;2094417;28;20092;-86
2024/01/14 04:20:56;;;;;;;6.32;5.10;;;;;;;;;;2093522;28;20044;-86
2024/01/14 04:22:16;;;;;;;5.28;4.78;;;;;;;;;;2094125;28;20123;-86
2024/01/14 04:23:35;;;;;;;5.55;4.72;;;;;;;;;;2092375;28;20113;-85
2024/01/14 04:25:00;;;;;;;6.63;4.47;;;;;;;;;;2092727;28;20060;-86
2024/01/14 04:26:22;;;;;;;6.22;4.85;;;;;;;;;;2091999;28;20056;-85
2024/01/14 04:27:42;;;;;;;8.57;4.63;;;;;;;;;;2093553;28;20032;-85
2024/01/14 04:29:01;;;;;;;7.18;4.07;;;;;;;;;;2089811;28;20116;-86
2024/01/14 04:30:26;;;;;;;5.07;4.57;;;;;;;;;;2092390;28;20033;-86
2024/01/14 04:31:46;;;;;;;5.15;4.10;;;;;;;;;;2092948;28;20032;-85
2024/01/14 04:33:05;;;;;;;4.50;3.97;;;;;;;;;;2093219;28;20033;-86
2024/01/14 04:34:30;;;;;;;6.70;4.45;;;;;;;;;;2092728;28;20025;-86
2024/01/14 04:35:49;;;;;;;8.25;4.32;;;;;;;;;;2091637;28;20028;-85
2024/01/14 04:37:11;;;;;;;6.65;3.50;;;;;;;;;;2091843;28;20021;-85
2024/01/14 04:38:33;;;;;;;6.38;3.90;;;;;;;;;;2093400;28;20024;-85
2024/01/14 04:39:54;;;;;;;8.20;3.78;;;;;;;;;;2092611;28;20033;-85
2024/01/14 04:41:13;;;;;;;4.90;3.40;;;;;;;;;;2092116;28;20021;-86
2024/01/14 04:42:36;;;;;;;5.70;3.67;;;;;;;;;;2092086;28;20037;-85
2024/01/14 04:43:58;;;;;;;4.57;3.42;;;;;;;;;;2085088;28;20113;-85
2024/01/14 04:45:17;;;;;;;4.47;3.92;;;;;;;;;;2090167;28;20401;-86
2024/01/14 04:46:39;;;;;;;4.93;2.95;;;;;;;;;;2095002;28;20033;-86
2024/01/14 04:47:59;;;;;;;3.90;2.75;;;;;;;;;;2096631;28;20092;-85
2024/01/14 04:49:18;;;;;;;4.32;3.03;;;;;;;;;;2090782;28;20044;-85
2024/01/14 04:50:39;;;;;;;2.83;2.40;;;;;;;;;;2091783;28;20013;-85
2024/01/14 04:51:59;;;;;;;3.00;2.40;;;;;;;;;;2091059;28;20040;-87
2024/01/14 04:53:27;;;;;;;3.53;2.08;;;;;;;;;;2093695;28;20033;-85
2024/01/14 04:54:49;;;;;;;1.92;1.75;;;;;;;;;;2093763;28;20033;-85
2024/01/14 04:56:12;;;;;;;2.08;1.60;;;;;;;;;;2095365;28;20111;-86
2024/01/14 04:57:33;;;;;;;2.22;1.27;;;;;;;;;;2090793;28;20037;-86
2024/01/14 04:58:55;;;;;;;5.35;1.80;;;;;;;;;;2101347;28;20064;-85
2024/01/14 05:00:18;;;;;;;2.90;1.33;;;;;;;;;;2095412;28;20036;-85
2024/01/14 05:01:39;;;;;;;2.03;1.27;;;;;;;;;;2093192;28;20032;-85
2024/01/14 05:02:58;;;;;;;2.55;1.20;;;;;;;;;;2092517;28;20032;-85
2024/01/14 05:04:18;;;;;;;5.68;1.20;;;;;;;;;;2093566;28;20171;-85
2024/01/14 05:05:40;;;;;;;2.63;1.13;;;;;;;;;;2090337;28;20020;-86
2024/01/14 05:07:11;;;;;;;4.18;1.20;;;;;;;;;;2091654;28;20028;-85
2024/01/14 05:08:30;;;;;;;1.52;1.13;;;;;;;;;;2094733;28;20033;-85
2024/01/14 05:09:52;;;;;;;2.05;1.10;;;;;;;;;;2093000;28;20052;-87
2024/01/14 05:11:12;;;;;;;3.47;1.50;;;;;;;;;;2098996;28;20104;-86
2024/01/14 05:12:31;;;;;;;1.10;0.93;;;;;;;;;;2093553;28;20095;-86
2024/01/14 05:13:53;;;;;;;2.72;1.10;;;;;;;;;;2092216;28;20533;-86
2024/01/14 05:15:15;;;;;;;2.67;1.17;;;;;;;;;;2091934;28;20048;-85
2024/01/14 05:16:34;;;;;;;0.93;0.82;;;;;;;;;;2093787;28;20032;-87
2024/01/14 05:17:56;;;;;;;2.88;1.00;;;;;;;;;;2092416;28;20056;-85
2024/01/14 05:19:15;;;;;;;1.50;0.88;;;;;;;;;;2092948;28;20075;-86
2024/01/14 05:20:34;;;;;;;1.30;1.25;;;;;;;;;;2090350;28;20044;-86
2024/01/14 05:21:56;;;;;;;1.73;1.10;;;;;;;;;;2094305;28;20064;-85
2024/01/14 05:23:19;;;;;;;1.80;0.80;;;;;;;;;;2094599;28;20036;-85
2024/01/14 05:24:44;;;;;;;1.55;0.85;;;;;;;;;;2093730;28;20024;-86
2024/01/14 05:26:07;;;;;;;0.63;0.60;;;;;;;;;;2092831;28;20052;-85
2024/01/14 05:27:36;;;;;;;2.95;0.60;;;;;;;;;;2091523;28;20028;-85
2024/01/14 05:28:59;;;;;;;2.17;0.90;;;;;;;;;;2100450;28;20088;-85
2024/01/14 05:30:21;;;;;;;0.80;0.60;;;;;;;;;;2094100;28;20028;-85
2024/01/14 05:31:50;;;;;;;2.60;0.90;;;;;;;;;;2096605;28;20044;-86
2024/01/14 05:33:12;;;;;;;2.38;0.70;;;;;;;;;;2093247;28;20025;-86
2024/01/14 05:34:47;;;;;;;3.65;0.65;;;;;;;;;;2095253;28;20025;-85
2024/01/14 05:36:09;;;;;;;4.57;1.10;;;;;;;;;;2094355;28;20037;-85
2024/01/14 05:37:29;;;;;;;1.45;0.80;;;;;;;;;;2090831;28;20053;-85
2024/01/14 05:38:51;;;;;;;0.80;0.75;;;;;;;;;;2091633;28;20402;-86
2024/01/14 05:40:13;;;;;;;4.10;1.10;;;;;;;;;;2099070;28;20417;-86
2024/01/14 05:41:33;;;;;;;2.40;0.88;;;;;;;;;;2095017;28;20028;-86
2024/01/14 05:42:54;;;;;;;1.98;1.02;;;;;;;;;;2093969;28;20045;-86
2024/01/14 05:44:14;;;;;;;0.73;0.68;;;;;;;;;;2090876;28;20032;-85
2024/01/14 05:45:36;;;;;;;0.73;0.73;;;;;;;;;;2090585;28;20040;-85
2024/01/14 05:46:56;;;;;;;0.70;0.70;;;;;;;;;;2091752;28;20495;-86
2024/01/14 05:48:15;;;;;;;0.68;0.68;;;;;;;;;;2093026;28;20040;-86
2024/01/14 05:49:34;;;;;;;1.27;0.95;;;;;;;;;;2091342;28;20021;-85
2024/01/14 05:50:53;;;;;;;4.28;0.73;;;;;;;;;;2093469;28;20464;-85
2024/01/14 05:52:15;;;;;;;3.22;1.38;;;;;;;;;;2090624;28;20028;-86
2024/01/14 05:53:37;;;;;;;2.25;0.90;;;;;;;;;;2091176;28;20398;-86
2024/01/14 05:54:56;;;;;;;1.60;1.00;;;;;;;;;;2092484;28;20020;-85
2024/01/14 05:56:23;;;;;;;1.83;0.80;;;;;;;;;;2093320;28;20242;-85
2024/01/14 05:57:44;;;;;;;1.67;0.95;;;;;;;;;;2094150;28;20033;-86
2024/01/14 05:59:06;;;;;;;1.35;1.00;;;;;;;;;;2092649;28;20028;-87
2024/01/14 06:00:34;;;;;;;1.05;0.70;;;;;;;;;;2092371;28;20716;-85
2024/01/14 06:01:55;;;;;;;1.58;1.10;;;;;;;;;;2094190;28;20036;-86
2024/01/14 06:03:14;;;;;;;4.28;0.98;;;;;;;;;;2091562;28;20028;-86
2024/01/14 06:04:39;;;;;;;3.28;1.10;;;;;;;;;;2091165;28;20419;-87
2024/01/14 06:06:01;;;;;;;1.00;0.90;;;;;;;;;;2092692;28;20033;-86
2024/01/14 06:07:26;;;;;;;1.75;0.98;;;;;;;;;;2091036;28;20116;-86
2024/01/14 06:08:45;;;;;;;2.42;0.85;;;;;;;;;;2092215;28;20467;-85
2024/01/14 06:10:05;;;;;;;1.77;0.90;;;;;;;;;;2092575;28;20020;-87
2024/01/14 06:11:24;;;;;;;2.90;1.00;;;;;;;;;;2090938;28;20453;-86
2024/01/14 06:12:46;;;;;;;1.13;0.80;;;;;;;;;;2089667;28;20024;-85
2024/01/14 06:14:08;;;;;;;2.08;1.02;;;;;;;;;;2089221;28;20033;-85
2024/01/14 06:15:31;;;;;;;2.53;0.80;;;;;;;;;;2092930;28;20088;-86
2024/01/14 06:16:51;;;;;;;1.08;0.90;;;;;;;;;;2093522;28;20028;-85
2024/01/14 06:18:10;;;;;;;0.98;0.60;;;;;;;;;;2092693;28;20111;-87
2024/01/14 06:19:29;;;;;;;1.48;0.70;;;;;;;;;;2089987;28;20037;-84
2024/01/14 06:21:30;;;;;;;6.57;1.20;;;;;;;;;;2091383;28;20037;-85
2024/01/14 06:22:37;;;;;;;1.23;0.77;;;;;;;;;;2101806;28;20079;-86
2024/01/14 06:24:05;;;;;;;0.93;0.90;;;;;;;;;;2094980;28;20025;-85
2024/01/14 06:25:24;;;;;;;3.35;0.80;;;;;;;;;;2092890;28;20032;-86
2024/01/14 06:26:47;;;;;;;0.80;0.65;;;;;;;;;;2093653;28;20052;-86
2024/01/14 06:28:09;;;;;;;2.25;1.13;;;;;;;;;;2092600;28;20642;-85
2024/01/14 06:29:31;;;;;;;1.42;0.88;;;;;;;;;;2093846;28;20036;-85
2024/01/14 06:30:51;;;;;;;3.83;0.80;;;;;;;;;;2093314;28;20036;-85
2024/01/14 06:32:14;;;;;;;2.72;0.82;;;;;;;;;;2093009;28;20036;-84
2024/01/14 06:33:39;;;;;;;0.90;0.90;;;;;;;;;;2094159;28;20032;-85
2024/01/14 06:34:58;;;;;;;2.10;0.80;;;;;;;;;;2097097;28;20088;-85
2024/01/14 06:36:20;;;;;;;5.00;0.70;;;;;;;;;;2093678;28;20401;-85
2024/01/14 06:37:42;;;;;;;1.33;0.73;;;;;;;;;;2096168;28;20393;-85
2024/01/14 06:39:05;;;;;;;1.25;1.05;;;;;;;;;;2093350;28;20084;-84
2024/01/14 06:40:30;;;;;;;0.90;0.70;;;;;;;;;;2099726;28;20958;-84
2024/01/14 06:41:50;;;;;;;0.52;0.50;;;;;;;;;;2097405;28;20052;-85
2024/01/14 06:43:14;;;;;;;3.53;1.08;;;;;;;;;;2093736;28;20032;-85
2024/01/14 06:44:37;;;;;;;1.05;0.90;;;;;;;;;;2098311;28;20385;-85
2024/01/14 06:45:57;;;;;;;2.00;1.25;;;;;;;;;;2095637;28;20455;-85
2024/01/14 06:47:19;;;;;;;2.97;1.00;;;;;;;;;;2093537;28;20510;-84
2024/01/14 06:48:38;;;;;;;1.08;0.90;;;;;;;;;;2092798;28;20044;-85
2024/01/14 06:49:57;;;;;;;2.15;0.80;;;;;;;;;;2093442;28;20409;-85
2024/01/14 06:51:19;;;;;;;1.40;0.80;;;;;;;;;;2096394;28;20100;-85
2024/01/14 06:52:46;;;;;;;1.40;0.70;;;;;;;;;;2092660;28;20025;-85
2024/01/14 06:54:05;;;;;;;2.38;0.95;;;;;;;;;;2093499;28;20448;-85
2024/01/14 06:55:27;;;;;;;0.70;0.70;;;;;;;;;;2093992;28;20493;-85
2024/01/14 06:56:47;;;;;;;1.00;0.68;;;;;;;;;;2092732;28;20028;-84
2024/01/14 06:58:15;;;;;;;0.80;0.80;;;;;;;;;;2093373;28;20032;-85
2024/01/14 06:59:34;;;;;;;1.65;0.60;;;;;;;;;;2094780;28;20032;-86
2024/01/14 07:00:56;;;;;;;0.85;0.57;;;;;;;;;;2093486;28;20028;-85
2024/01/14 07:02:15;;;;;;;1.65;0.73;;;;;;;;;;2096242;28;20036;-84
2024/01/14 07:03:34;;;;;;;2.25;0.80;;;;;;;;;;2092459;28;20510;-84
2024/01/14 07:04:53;;;;;;;1.77;0.90;;;;;;;;;;2094539;28;20608;-85
2024/01/14 07:06:15;;;;;;;1.10;0.90;;;;;;;;;;2092968;28;20032;-85
2024/01/14 07:07:36;;;;;;;;;;;;;;;;;;2101240;28;20028;-85
2024/01/14 07:08:55;;;;;;;1.40;1.00;;;;;;;;;;2092199;28;19916;-86
2024/01/14 07:10:14;;;;;;;1.77;0.95;;;;;;;;;;2092660;28;20025;-84
2024/01/14 07:11:33;;;;;;;1.85;0.95;;;;;;;;;;2092418;28;20126;-84
2024/01/14 07:12:52;;;;;;;2.47;1.00;;;;;;;;;;2095571;28;20029;-83
2024/01/14 07:14:11;;;;;;;2.47;0.90;;;;;;;;;;2092482;28;20107;-84
2024/01/14 07:15:33;;;;;;;2.90;1.17;;;;;;;;;;2095447;28;20052;-82
2024/01/14 07:16:52;;;;;;;1.60;0.90;;;;;;;;;;2091672;28;20033;-83
2024/01/14 07:18:11;;;;;;;2.13;0.77;;;;;;;;;;2089689;28;20040;-84
2024/01/14 07:19:33;;;;;;;1.30;1.02;;;;;;;;;;2091000;28;20490;-83
2024/01/14 07:20:53;;;;;;;2.58;1.33;;;;;;;;;;2093568;28;20044;-83
2024/01/14 07:22:12;;;;;;;2.33;0.98;;;;;;;;;;2094685;28;20434;-84
2024/01/14 07:23:33;;;;;;;1.90;1.00;;;;;;;;;;2092980;28;20044;-82
2024/01/14 07:24:53;;;;;;;2.28;0.88;;;;;;;;;;2092122;28;20109;-82
2024/01/14 07:26:16;;;;;;;0.80;0.80;;;;;;;;;;2098471;28;20052;-82
2024/01/14 07:27:38;;;;;;;;;;;;;;;;;;2095661;28;20036;-83
2024/01/14 07:29:00;;;;;;;2.22;1.05;;;;;;;;;;2092903;28;19956;-83
2024/01/14 07:30:20;;;;;;;1.17;0.93;;;;;;;;;;2096275;28;20036;-83
2024/01/14 07:31:39;;;;;;;1.30;1.02;;;;;;;;;;2091996;28;20036;-83
2024/01/14 07:32:58;;;;;;;2.05;0.80;;;;;;;;;;2093490;28;20025;-83
2024/01/14 07:34:18;;;;;;;1.00;0.93;;;;;;;;;;2090519;28;20029;-83
2024/01/14 07:35:40;;;;;;;0.75;0.70;;;;;;;;;;2083187;28;20042;-83
2024/01/14 07:37:02;;;;;;;1.77;1.00;;;;;;;;;;2086632;28;20029;-85
2024/01/14 07:38:43;;;;;;;1.05;0.98;;;;;;;;;;2092192;28;20250;-84
2024/01/14 07:40:02;;;;;;;1.20;0.95;;;;;;;;;;2093601;28;20040;-83
2024/01/14 07:41:27;;;;;;;1.65;0.90;;;;;;;;;;2093277;28;20033;-81
2024/01/14 07:42:56;;;;;;;1.42;1.00;;;;;;;;;;2100762;28;20032;-81
2024/01/14 07:44:15;;;;;;;3.17;1.13;;;;;;;;;;2099611;28;20036;-81
2024/01/14 07:45:49;;;;;;;2.05;0.70;;;;;;;;;;2095400;28;20028;-81
2024/01/14 07:47:16;;;;;;;1.52;1.00;;;;;;;;;;2099819;28;20059;-84
2024/01/14 07:48:49;;;;;;;1.90;0.80;;;;;;;;;;2096509;28;20028;-82
2024/01/14 07:50:11;;;;;;;1.60;0.90;;;;;;;;;;2098872;28;20071;-81
2024/01/14 07:51:35;;;;;;;0.95;0.93;;;;;;;;;;2091001;28;20063;-81
2024/01/14 07:52:54;;;;;;;0.73;0.73;;;;;;;;;;2085047;28;20378;-82
2024/01/14 07:54:14;;;;;;;1.40;1.05;;;;;;;;;;2089593;28;20032;-82
2024/01/14 07:55:33;;;;;;;0.88;0.85;;;;;;;;;;2091553;28;20028;-83
2024/01/14 07:56:52;;;;;;;3.42;0.73;;;;;;;;;;2089425;28;20024;-82
2024/01/14 07:58:15;;;;;;;1.13;1.00;;;;;;;;;;2092790;28;20036;-82
2024/01/14 07:59:37;;;;;;;0.93;0.80;;;;;;;;;;2090744;28;20115;-83
2024/01/14 08:00:56;;;;;;;1.55;1.45;;;;;;;;;;2090664;28;20032;-82
2024/01/14 08:02:15;;;;;;;2.42;1.00;;;;;;;;;;2093072;28;20040;-83
2024/01/14 08:03:35;;;;;;;2.03;0.90;;;;;;;;;;2087756;28;20060;-84
2024/01/14 08:04:58;;;;;;;1.35;0.77;;;;;;;;;;2088417;28;20040;-83
2024/01/14 08:06:24;;;;;;;0.80;0.80;;;;;;;;;;2099097;28;20034;-86
2024/01/14 08:07:43;;;;;;;1.05;0.93;;;;;;;;;;2102481;28;20033;-84
2024/01/14 08:09:06;;;;;;;0.90;0.75;;;;;;;;;;2092493;28;20037;-84
2024/01/14 08:10:25;;;;;;;1.50;0.88;;;;;;;;;;2093202;28;20115;-82
2024/01/14 08:11:46;;;;;;;0.77;0.70;;;;;;;;;;2088654;28;20035;-83
2024/01/14 08:13:14;;;;;;;1.00;0.90;;;;;;;;;;2089984;28;20037;-84
2024/01/14 08:14:33;;;;;;;3.00;0.85;;;;;;;;;;2095095;28;20032;-83
2024/01/14 08:15:52;;;;;;;3.25;0.80;;;;;;;;;;2094168;28;20033;-83
2024/01/14 08:17:12;;;;;;;1.85;0.80;;;;;;;;;;2092783;28;20052;-84